Time;durP1;ratioP1;P1;durP2;ratioP2;P2;SDS_P1;SDS_P2;PMS_P1;PMS_P2;Temp;Humidity;BMP_temperature;BMP_pressure;BME280_temperature;BME280_humidity;BME280_pressure;Samples;Min_cycle;Max_cycle;Signal;HPM_P1;HPM_P2
2023/08/11 00:01:04;;;;;;;2.92;1.90;;;;;;;17.45;69.62;95297.19;5052627;28;20218;-72
2023/08/11 00:03:33;;;;;;;3.15;1.90;;;;;;;17.50;70.26;95294.03;5053807;28;20197;-72
2023/08/11 00:06:02;;;;;;;1.70;1.60;;;;;;;17.51;70.73;95295.63;5070232;28;20190;-72
2023/08/11 00:08:29;;;;;;;2.97;1.80;;;;;;;17.49;70.93;95288.84;5054095;28;20201;-72
2023/08/11 00:10:59;;;;;;;1.90;1.80;;;;;;;17.44;69.48;95290.00;5055840;28;20197;-72
2023/08/11 00:13:27;;;;;;;2.72;2.10;;;;;;;17.44;69.35;95286.44;5057739;28;20617;-73
2023/08/11 00:15:55;;;;;;;1.90;1.80;;;;;;;17.43;69.00;95291.22;5057246;28;20279;-73
2023/08/11 00:18:23;;;;;;;1.65;1.55;;;;;;;17.42;69.49;95281.22;5057732;28;20198;-73
2023/08/11 00:20:53;;;;;;;1.80;1.70;;;;;;;17.38;69.30;95288.78;5058535;28;20182;-73
2023/08/11 00:23:24;;;;;;;2.13;1.70;;;;;;;17.35;69.58;95285.97;5057205;28;20300;-73
2023/08/11 00:25:52;;;;;;;2.00;1.88;;;;;;;17.31;69.63;95286.75;5057347;28;20200;-72
2023/08/11 00:28:20;;;;;;;2.03;1.92;;;;;;;17.27;69.79;95283.16;5057508;28;20207;-72
2023/08/11 00:30:50;;;;;;;2.45;1.80;;;;;;;17.26;69.60;95276.00;5057820;28;20209;-72
2023/08/11 00:33:18;;;;;;;2.00;1.80;;;;;;;17.24;69.78;95289.50;5058508;28;20205;-73
2023/08/11 00:35:46;;;;;;;2.17;2.00;;;;;;;17.24;69.98;95283.94;5057058;28;20234;-73
2023/08/11 00:38:16;;;;;;;2.03;1.70;;;;;;;17.22;69.86;95283.53;5057089;28;20720;-73
2023/08/11 00:40:44;;;;;;;2.10;1.85;;;;;;;17.21;69.30;95286.72;5056979;28;20574;-72
2023/08/11 00:43:12;;;;;;;1.80;1.70;;;;;;;17.21;69.64;95295.06;5057640;28;20206;-72
2023/08/11 00:45:39;;;;;;;2.75;1.77;;;;;;;17.20;69.77;95293.47;5057603;28;20198;-72
2023/08/11 00:48:07;;;;;;;2.22;2.08;;;;;;;17.20;69.49;95297.06;5057595;28;20327;-72
2023/08/11 00:50:35;;;;;;;1.80;1.70;;;;;;;17.21;69.51;95297.84;5057377;28;20205;-73
2023/08/11 00:53:04;;;;;;;1.88;1.73;;;;;;;17.22;69.52;95300.28;5057309;28;20307;-73
2023/08/11 00:55:33;;;;;;;2.20;1.80;;;;;;;17.22;69.94;95305.03;5073531;28;20228;-73
2023/08/11 00:58:02;;;;;;;1.88;1.77;;;;;;;17.22;69.44;95302.25;5056646;28;20581;-73
2023/08/11 01:00:30;;;;;;;2.10;2.00;;;;;;;17.21;69.09;95303.44;5056935;28;20259;-73
2023/08/11 01:02:58;;;;;;;2.22;1.70;;;;;;;17.23;69.68;95301.06;5073410;28;20217;-73
2023/08/11 01:05:28;;;;;;;2.15;2.05;;;;;;;17.22;68.88;95294.69;5056402;28;20641;-73
2023/08/11 01:08:04;;;;;;;1.95;1.70;;;;;;;17.21;68.80;95289.50;5056688;28;20263;-73
2023/08/11 01:10:46;;;;;;;2.03;1.83;;;;;;;17.22;69.02;95288.31;5056474;28;20185;-73
2023/08/11 01:13:17;;;;;;;2.53;2.22;;;;;;;17.24;67.69;95280.34;5056407;28;20209;-73
2023/08/11 01:15:52;;;;;;;2.28;2.08;;;;;;;17.27;67.29;95282.38;5056388;28;20214;-73
2023/08/11 01:18:21;;;;;;;1.75;1.65;;;;;;;17.29;66.33;95288.34;5056542;28;20193;-73
2023/08/11 01:20:53;;;;;;;1.92;1.83;;;;;;;17.29;67.13;95286.38;5056405;28;20210;-73
2023/08/11 01:23:23;;;;;;;1.75;1.65;;;;;;;17.29;66.91;95285.56;5056660;28;20201;-73
2023/08/11 01:25:56;;;;;;;2.00;1.85;;;;;;;17.27;67.78;95294.31;5056135;28;20201;-73
2023/08/11 01:28:25;;;;;;;2.00;1.80;;;;;;;17.24;68.51;95294.28;5057222;28;20213;-73
2023/08/11 01:30:53;;;;;;;2.97;2.10;;;;;;;17.21;68.81;95293.09;5056363;28;20206;-74
2023/08/11 01:33:22;;;;;;;1.85;1.75;;;;;;;17.18;69.28;95304.22;5056029;28;20527;-74
2023/08/11 01:35:50;;;;;;;2.17;2.08;;;;;;;17.07;69.62;95304.16;5055878;28;20567;-74
2023/08/11 01:38:18;;;;;;;9.30;2.20;;;;;;;17.00;70.44;95299.34;5056403;28;20194;-73
2023/08/11 01:40:49;;;;;;;1.88;1.75;;;;;;;16.93;71.17;95296.53;5055688;28;20216;-73
2023/08/11 01:43:18;;;;;;;2.65;2.15;;;;;;;16.87;71.78;95298.06;5056136;28;20198;-74
2023/08/11 01:45:48;;;;;;;2.28;1.90;;;;;;;16.87;71.96;95302.84;5056000;28;20267;-73
2023/08/11 01:48:18;;;;;;;2.35;2.15;;;;;;;16.84;71.60;95298.84;5056434;28;20244;-73
2023/08/11 01:50:46;;;;;;;4.20;2.17;;;;;;;16.77;71.80;95296.78;5056085;28;20205;-74
2023/08/11 01:53:16;;;;;;;2.50;1.80;;;;;;;16.75;71.94;95293.63;5055491;28;20724;-73
2023/08/11 01:55:45;;;;;;;2.03;1.92;;;;;;;16.74;71.47;95294.81;5055544;28;20213;-73
2023/08/11 01:58:14;;;;;;;1.85;1.75;;;;;;;16.77;70.75;95296.78;5055627;28;20618;-74
2023/08/11 02:00:42;;;;;;;2.75;1.80;;;;;;;16.83;69.68;95300.03;5072879;28;20218;-73
2023/08/11 02:03:10;;;;;;;2.85;2.20;;;;;;;16.87;68.95;95297.25;5055838;28;20193;-73
2023/08/11 02:05:37;;;;;;;2.90;2.17;;;;;;;16.92;69.35;95303.28;5055506;28;20204;-73
2023/08/11 02:08:08;;;;;;;3.10;1.95;;;;;;;16.94;69.21;95298.09;5055916;28;20194;-73
2023/08/11 02:10:36;;;;;;;2.15;2.00;;;;;;;16.98;68.93;95298.94;5055842;28;20252;-73
2023/08/11 02:13:09;;;;;;;2.47;1.90;;;;;;;17.01;68.99;95298.16;5055711;28;20202;-73
2023/08/11 02:15:38;;;;;;;2.17;2.00;;;;;;;17.02;68.58;95294.16;5055858;28;20641;-74
2023/08/11 02:18:07;;;;;;;2.22;2.03;;;;;;;17.02;68.69;95296.97;5072436;28;20227;-74
2023/08/11 02:20:34;;;;;;;2.42;1.80;;;;;;;17.03;68.55;95297.75;5055359;28;20197;-74
2023/08/11 02:23:02;;;;;;;2.40;2.20;;;;;;;17.03;68.56;95301.38;5055246;28;20201;-74
2023/08/11 02:25:33;;;;;;;2.00;1.90;;;;;;;17.03;68.49;95308.91;5055175;28;20292;-74
2023/08/11 02:28:03;;;;;;;2.35;2.00;;;;;;;17.01;68.74;95300.94;5055394;28;20193;-73
2023/08/11 02:30:32;;;;;;;3.58;2.00;;;;;;;16.99;68.98;95300.53;5055277;28;20197;-73
2023/08/11 02:33:01;;;;;;;2.00;1.90;;;;;;;16.99;69.08;95310.88;5054490;28;20205;-73
2023/08/11 02:35:29;;;;;;;2.90;1.90;;;;;;;17.01;69.13;95303.72;5054675;28;20249;-73
2023/08/11 02:37:56;;;;;;;1.80;1.70;;;;;;;17.02;69.08;95308.09;5054603;28;20209;-73
2023/08/11 02:40:27;;;;;;;2.83;1.90;;;;;;;17.02;69.33;95310.88;5054803;28;20193;-73
2023/08/11 02:42:56;;;;;;;2.65;1.83;;;;;;;17.01;69.49;95303.72;5055106;28;20206;-72
2023/08/11 02:45:25;;;;;;;2.00;1.90;;;;;;;17.01;69.09;95300.94;5054989;28;20194;-73
2023/08/11 02:47:56;;;;;;;1.88;1.77;;;;;;;17.01;69.35;95309.31;5054550;28;20284;-72
2023/08/11 02:50:28;;;;;;;2.22;2.03;;;;;;;17.01;69.09;95308.50;5054492;28;20205;-72
2023/08/11 02:52:56;;;;;;;2.30;1.83;;;;;;;17.03;69.66;95309.72;5054989;28;20206;-72
2023/08/11 02:55:24;;;;;;;2.08;1.98;;;;;;;17.03;69.81;95314.47;5054464;28;20236;-72
2023/08/11 02:57:51;;;;;;;2.17;2.08;;;;;;;17.00;69.88;95313.28;5054558;28;20209;-72
2023/08/11 03:00:19;;;;;;;2.35;2.15;;;;;;;16.97;70.57;95314.06;5054351;28;20204;-72
2023/08/11 03:02:47;;;;;;;2.20;2.00;;;;;;;16.95;70.84;95313.63;5055000;28;20196;-72
2023/08/11 03:05:19;;;;;;;2.03;1.83;;;;;;;16.96;70.42;95309.69;5054572;28;20255;-72
2023/08/11 03:07:48;;;;;;;2.05;1.95;;;;;;;16.98;70.68;95317.63;5054492;28;20539;-72
2023/08/11 03:10:17;;;;;;;3.33;2.20;;;;;;;16.98;70.85;95323.22;5054368;28;20192;-73
2023/08/11 03:12:45;;;;;;;3.67;2.67;;;;;;;16.94;71.37;95319.59;5054573;28;20225;-73
2023/08/11 03:15:13;;;;;;;4.20;2.38;;;;;;;16.90;71.41;95325.16;5054366;28;20236;-73
2023/08/11 03:17:40;;;;;;;3.15;2.22;;;;;;;16.91;71.78;95321.16;5054353;28;20288;-72
2023/08/11 03:20:12;;;;;;;2.13;2.03;;;;;;;16.90;71.81;95324.34;5054006;28;20205;-73
2023/08/11 03:22:41;;;;;;;2.40;2.20;;;;;;;16.88;71.62;95315.56;5071505;28;20193;-73
2023/08/11 03:25:11;;;;;;;2.20;2.10;;;;;;;16.88;71.79;95321.13;5054411;28;20197;-74
2023/08/11 03:27:41;;;;;;;2.10;1.92;;;;;;;16.88;71.57;95321.94;5070794;28;20271;-74
2023/08/11 03:30:11;;;;;;;2.22;2.00;;;;;;;16.88;71.56;95329.50;5054463;28;20546;-74
2023/08/11 03:32:39;;;;;;;2.83;2.25;;;;;;;16.88;71.27;95333.09;5071134;28;20234;-74
2023/08/11 03:35:10;;;;;;;2.25;2.05;;;;;;;16.88;71.55;95329.50;5070340;28;20229;-74
2023/08/11 03:37:37;;;;;;;4.68;2.40;;;;;;;16.85;71.63;95328.31;5070645;28;20197;-74
2023/08/11 03:40:12;;;;;;;5.32;2.45;;;;;;;16.78;72.74;95326.25;5054405;28;20217;-73
2023/08/11 03:42:43;;;;;;;3.28;2.40;;;;;;;16.69;73.09;95325.75;5054933;28;20637;-73
2023/08/11 03:45:13;;;;;;;2.83;2.33;;;;;;;16.63;72.84;95334.84;5071383;28;20205;-73
2023/08/11 03:47:40;;;;;;;5.25;3.22;;;;;;;16.54;73.42;95332.41;5058296;28;20212;-74
2023/08/11 03:50:11;;;;;;;2.65;2.40;;;;;;;16.47;73.31;95338.69;5058189;28;20205;-72
2023/08/11 03:52:39;;;;;;;3.83;2.30;;;;;;;16.37;73.10;95331.06;5075298;28;20528;-71
2023/08/11 03:55:09;;;;;;;4.05;2.47;;;;;;;16.34;73.71;95331.84;5057871;28;20205;-71
2023/08/11 03:57:36;;;;;;;6.10;2.70;;;;;;;16.41;73.89;95331.88;5057529;28;20517;-70
2023/08/11 04:00:11;;;;;;;3.97;2.88;;;;;;;16.45;73.90;95326.34;5058083;28;20194;-72
2023/08/11 04:02:39;;;;;;;5.40;2.70;;;;;;;16.47;73.83;95319.22;5058207;28;20216;-69
2023/08/11 04:05:10;;;;;;;3.25;2.90;;;;;;;16.49;73.78;95325.22;5058156;28;20190;-70
2023/08/11 04:07:37;;;;;;;4.15;3.10;;;;;;;16.50;73.95;95324.03;5057495;28;20243;-72
2023/08/11 04:10:10;;;;;;;3.50;2.65;;;;;;;16.56;73.72;95324.47;5057818;28;20206;-73
2023/08/11 04:12:37;;;;;;;2.58;2.30;;;;;;;16.61;73.16;95329.69;5057764;28;20202;-73
2023/08/11 04:15:11;;;;;;;3.42;2.55;;;;;;;16.68;73.49;95326.94;5058866;28;20197;-75
2023/08/11 04:17:41;;;;;;;3.95;2.95;;;;;;;16.74;73.03;95332.97;5057780;28;20205;-76
2023/08/11 04:20:13;;;;;;;3.08;2.45;;;;;;;16.78;73.24;95333.81;5057390;28;20205;-75
2023/08/11 04:22:43;;;;;;;2.65;2.45;;;;;;;16.82;73.17;95327.09;5058936;28;20206;-73
2023/08/11 04:25:12;;;;;;;3.33;2.50;;;;;;;16.84;72.76;95330.28;5058507;28;20622;-70
2023/08/11 04:27:40;;;;;;;3.33;2.78;;;;;;;16.90;72.44;95335.50;5057180;28;20209;-69
2023/08/11 04:30:17;;;;;;;2.58;2.38;;;;;;;16.92;71.74;95324.75;5057154;28;20251;-72
2023/08/11 04:32:45;;;;;;;3.42;2.38;;;;;;;16.96;71.90;95333.97;5057816;28;20201;-72
2023/08/11 04:35:14;;;;;;;2.50;2.30;;;;;;;16.98;71.71;95332.38;5057369;28;20229;-71
2023/08/11 04:37:42;;;;;;;2.60;2.40;;;;;;;17.02;71.91;95337.97;5057195;28;20215;-72
2023/08/11 04:40:10;;;;;;;2.45;2.25;;;;;;;17.05;72.14;95340.78;5057289;28;20200;-73
2023/08/11 04:42:39;;;;;;;2.28;2.10;;;;;;;17.05;72.10;95343.56;5058093;28;20217;-73
2023/08/11 04:45:10;;;;;;;4.15;2.50;;;;;;;17.05;71.74;95343.56;5074212;28;20217;-72
2023/08/11 04:47:37;;;;;;;4.03;2.35;;;;;;;17.05;71.66;95346.34;5057014;28;20209;-71
2023/08/11 04:50:07;;;;;;;2.53;2.10;;;;;;;17.07;71.70;95345.97;5057246;28;20197;-71
2023/08/11 04:52:36;;;;;;;2.50;2.30;;;;;;;17.06;71.59;95347.13;5057525;28;20259;-71
2023/08/11 04:55:07;;;;;;;2.42;2.28;;;;;;;17.07;71.72;95343.97;5057135;28;20190;-71
2023/08/11 04:57:37;;;;;;;3.08;2.40;;;;;;;17.08;71.56;95342.00;5056671;28;20309;-71
2023/08/11 05:00:20;;;;;;;2.60;2.40;;;;;;;17.35;70.96;95344.53;5057892;28;20255;-72
2023/08/11 05:02:51;;;;;;;3.70;2.40;;;;;;;17.41;71.01;95354.13;5057104;28;20265;-71
2023/08/11 05:05:22;;;;;;;2.67;2.30;;;;;;;17.30;71.00;95349.28;5056893;28;20201;-71
2023/08/11 05:07:53;;;;;;;2.67;2.47;;;;;;;17.25;71.26;95349.66;5056493;28;20185;-71
2023/08/11 05:10:24;;;;;;;3.92;2.35;;;;;;;17.21;71.75;95353.59;5056999;28;20288;-71
2023/08/11 05:12:52;;;;;;;2.78;2.58;;;;;;;17.19;72.01;95353.22;5056887;28;20204;-72
2023/08/11 05:15:23;;;;;;;2.65;2.45;;;;;;;17.18;71.84;95357.19;5056418;28;20190;-72
2023/08/11 05:17:53;;;;;;;3.00;2.80;;;;;;;17.17;72.31;95363.94;5056645;28;20355;-72
2023/08/11 05:20:21;;;;;;;2.40;2.20;;;;;;;17.15;72.22;95371.91;5057140;28;20263;-72
2023/08/11 05:22:48;;;;;;;2.88;2.65;;;;;;;17.18;72.40;95359.97;5056716;28;20212;-71
2023/08/11 05:25:18;;;;;;;3.60;2.80;;;;;;;17.16;72.18;95373.47;5056526;28;20555;-71
2023/08/11 05:27:49;;;;;;;3.08;2.78;;;;;;;17.15;72.10;95378.25;5073339;28;20248;-71
2023/08/11 05:30:20;;;;;;;2.55;2.35;;;;;;;17.15;72.55;95383.03;5056603;28;20562;-72
2023/08/11 05:32:50;;;;;;;3.00;2.80;;;;;;;17.21;72.29;95370.31;5057466;28;20178;-72
2023/08/11 05:35:18;;;;;;;3.58;3.28;;;;;;;17.19;71.95;95381.88;5056382;28;20241;-71
2023/08/11 05:37:47;;;;;;;2.70;2.50;;;;;;;17.19;72.39;95381.06;5056328;28;20556;-71
2023/08/11 05:40:16;;;;;;;3.05;2.75;;;;;;;17.17;72.68;95392.59;5073696;28;20296;-72
2023/08/11 05:42:43;;;;;;;3.40;2.80;;;;;;;17.17;72.45;95389.00;5056391;28;20197;-71
2023/08/11 05:45:11;;;;;;;3.75;2.80;;;;;;;17.18;72.47;95385.06;5055923;28;20217;-72
2023/08/11 05:47:40;;;;;;;4.15;3.00;;;;;;;17.17;72.13;95389.81;5055792;28;20648;-71
2023/08/11 05:50:10;;;;;;;2.92;2.63;;;;;;;17.16;72.54;95385.44;5056411;28;20201;-71
2023/08/11 05:52:38;;;;;;;3.08;2.88;;;;;;;17.21;72.43;95385.09;5055743;28;20209;-71
2023/08/11 05:55:11;;;;;;;3.58;3.15;;;;;;;17.27;72.16;95388.28;5056053;28;20201;-71
2023/08/11 05:57:41;;;;;;;5.20;3.90;;;;;;;17.28;72.84;95389.88;5055661;28;20217;-72
2023/08/11 06:00:16;;;;;;;3.00;2.78;;;;;;;17.29;72.36;95392.28;5056669;28;20190;-71
2023/08/11 06:02:47;;;;;;;3.03;2.80;;;;;;;17.32;72.47;95387.94;5055557;28;20206;-71
2023/08/11 06:05:23;;;;;;;3.75;3.40;;;;;;;17.38;72.24;95393.94;5056390;28;20526;-72
2023/08/11 06:07:50;;;;;;;4.65;3.15;;;;;;;17.40;72.00;95389.56;5055002;28;20212;-73
2023/08/11 06:10:21;;;;;;;4.82;3.58;;;;;;;17.43;71.80;95388.81;5056100;28;20194;-73
2023/08/11 06:12:49;;;;;;;3.47;3.17;;;;;;;17.43;72.01;95387.97;5055944;28;20223;-73
2023/08/11 06:15:16;;;;;;;3.30;3.00;;;;;;;17.45;71.66;95391.19;5055440;28;20668;-72
2023/08/11 06:17:49;;;;;;;3.38;3.08;;;;;;;17.49;71.14;95392.81;5055046;28;20228;-73
2023/08/11 06:20:22;;;;;;;3.60;3.30;;;;;;;17.54;70.87;95386.88;5056299;28;20208;-72
2023/08/11 06:22:52;;;;;;;3.50;3.00;;;;;;;17.59;69.97;95396.06;5055561;28;20217;-73
2023/08/11 06:25:23;;;;;;;3.13;2.92;;;;;;;17.61;70.20;95388.06;5055907;28;20190;-70
2023/08/11 06:27:51;;;;;;;3.05;2.80;;;;;;;17.62;70.51;95392.50;5055437;28;20201;-73
2023/08/11 06:30:19;;;;;;;4.70;3.15;;;;;;;17.66;70.80;95393.31;5055251;28;20535;-72
2023/08/11 06:32:47;;;;;;;3.38;3.17;;;;;;;17.71;70.44;95404.88;5055268;28;20198;-71
2023/08/11 06:35:15;;;;;;;3.83;3.13;;;;;;;17.72;70.34;95403.69;5055115;28;20237;-71
2023/08/11 06:37:51;;;;;;;4.63;3.00;;;;;;;17.71;70.68;95398.50;5054826;28;20217;-72
2023/08/11 06:40:17;;;;;;;3.47;3.22;;;;;;;17.74;70.59;95404.09;5055028;28;20193;-74
2023/08/11 06:42:48;;;;;;;3.72;3.13;;;;;;;17.83;70.04;95406.56;5054824;28;20205;-72
2023/08/11 06:45:15;;;;;;;3.53;3.22;;;;;;;17.89;70.06;95398.59;5055171;28;20205;-71
2023/08/11 06:47:43;;;;;;;3.50;3.25;;;;;;;17.91;70.03;95396.25;5055008;28;20251;-71
2023/08/11 06:50:11;;;;;;;4.00;3.70;;;;;;;17.95;69.85;95406.22;5056168;28;20603;-72
2023/08/11 06:52:41;;;;;;;3.55;3.20;;;;;;;17.98;69.12;95407.44;5055352;28;20197;-71
2023/08/11 06:55:17;;;;;;;3.38;3.15;;;;;;;17.96;68.73;95404.22;5055293;28;20255;-71
2023/08/11 06:57:47;;;;;;;4.43;3.65;;;;;;;17.96;68.57;95399.44;5055119;28;20240;-72
2023/08/11 07:00:17;;;;;;;5.47;3.67;;;;;;;18.00;68.95;95402.25;5055365;28;20190;-73
2023/08/11 07:02:45;;;;;;;4.07;3.30;;;;;;;18.02;68.43;95413.81;5055360;28;20190;-72
2023/08/11 07:05:16;;;;;;;4.40;4.00;;;;;;;18.02;68.61;95406.25;5054918;28;20209;-71
2023/08/11 07:07:43;;;;;;;3.78;3.47;;;;;;;18.07;68.25;95410.63;5054836;28;20197;-71
2023/08/11 07:10:13;;;;;;;3.80;3.50;;;;;;;18.12;68.05;95423.41;5055066;28;20193;-69
2023/08/11 07:12:41;;;;;;;4.80;4.40;;;;;;;18.16;67.80;95419.47;5055209;28;20205;-72
2023/08/11 07:15:10;;;;;;;3.80;3.50;;;;;;;18.14;66.97;95410.66;5055000;28;20205;-72
2023/08/11 07:17:37;;;;;;;3.95;3.55;;;;;;;18.16;66.86;95415.88;5054759;28;20225;-72
2023/08/11 07:20:07;;;;;;;5.55;3.72;;;;;;;18.19;67.12;95427.06;5054867;28;20209;-72
2023/08/11 07:22:34;;;;;;;3.95;3.58;;;;;;;18.25;66.79;95417.09;5054841;28;20205;-70
2023/08/11 07:25:00;;;;;;;4.50;4.18;;;;;;;18.31;66.88;95422.31;5054830;28;20189;-72
2023/08/11 07:27:52;;;;;;;4.15;3.85;;;;;;;18.32;66.85;95416.31;5054943;28;20205;-71
2023/08/11 07:30:57;;;;;;;4.45;3.92;;;;;;;18.42;66.58;95421.13;4959480;28;20207;-73
2023/08/11 07:34:02;;;;;;;4.68;4.28;;;;;;;18.50;65.99;95417.16;4959463;28;20204;-72
2023/08/11 07:37:07;;;;;;;5.13;3.70;;;;;;;18.57;66.07;95415.56;4975077;28;20247;-73
2023/08/11 07:40:12;;;;;;;4.05;3.70;;;;;;;18.64;66.01;95419.19;4974977;28;20210;-71
2023/08/11 07:43:16;;;;;;;3.92;3.50;;;;;;;18.72;65.84;95420.81;4958959;28;20268;-70
2023/08/11 07:46:22;;;;;;;5.05;3.85;;;;;;;18.73;64.84;95422.41;4959025;28;20208;-71
2023/08/11 07:49:27;;;;;;;4.05;3.65;;;;;;;18.76;65.16;95424.41;4974877;28;20204;-71
2023/08/11 07:52:32;;;;;;;3.85;3.55;;;;;;;18.83;65.18;95420.03;4958530;28;20215;-72
2023/08/11 07:55:36;;;;;;;3.83;3.60;;;;;;;18.94;65.39;95418.03;4958266;28;20319;-73
2023/08/11 07:58:41;;;;;;;3.60;3.33;;;;;;;19.06;65.17;95417.63;4975183;28;20231;-71
2023/08/11 08:01:48;;;;;;;4.20;3.90;;;;;;;19.17;65.15;95418.44;5024846;28;20346;-72
2023/08/11 08:04:52;;;;;;;4.32;3.92;;;;;;;19.31;64.67;95417.63;5055749;28;20205;-71
2023/08/11 08:07:57;;;;;;;4.07;3.67;;;;;;;19.44;63.65;95416.00;5054480;28;20193;-71
2023/08/11 08:11:03;;;;;;;4.32;3.92;;;;;;;19.60;63.54;95423.16;5053788;28;20198;-71
2023/08/11 08:14:09;;;;;;;3.72;3.42;;;;;;;19.73;62.94;95418.78;5054115;28;20206;-70
2023/08/11 08:17:14;;;;;;;4.28;3.88;;;;;;;19.85;61.72;95409.16;5054362;28;20307;-72
2023/08/11 08:20:20;;;;;;;3.80;3.60;;;;;;;19.91;61.57;95422.31;5053844;28;20193;-72
2023/08/11 08:23:25;;;;;;;4.50;4.00;;;;;;;19.96;61.05;95415.50;5053905;28;20236;-72
2023/08/11 08:26:29;;;;;;;3.88;3.47;;;;;;;19.96;59.86;95416.28;5053503;28;20205;-72
2023/08/11 08:29:34;;;;;;;4.18;3.78;;;;;;;19.98;60.21;95410.31;5053610;28;20625;-72
2023/08/11 08:32:04;;;;;;;4.05;3.53;;;;;;;20.07;59.87;95415.47;5055632;28;20235;-71
2023/08/11 08:34:32;;;;;;;4.00;3.17;;;;;;;20.29;58.45;95408.56;5057920;28;20189;-71
2023/08/11 08:37:00;;;;;;;3.25;2.95;;;;;;;20.39;58.44;95410.50;5056926;28;20241;-70
2023/08/11 08:39:28;;;;;;;3.75;3.40;;;;;;;20.37;58.77;95409.31;5057186;28;20206;-70
2023/08/11 08:41:58;;;;;;;3.47;3.22;;;;;;;20.36;58.54;95408.53;5056897;28;20206;-72
2023/08/11 08:44:27;;;;;;;3.55;3.25;;;;;;;20.43;59.21;95414.09;5057936;28;20236;-73
2023/08/11 08:46:54;;;;;;;3.65;3.33;;;;;;;20.51;57.80;95403.66;5057423;28;20194;-71
2023/08/11 08:49:27;;;;;;;3.60;3.30;;;;;;;20.58;57.27;95411.25;5056877;28;20675;-71
2023/08/11 08:51:56;;;;;;;3.33;3.13;;;;;;;20.70;57.78;95404.34;5056776;28;20204;-72
2023/08/11 08:54:25;;;;;;;4.20;3.90;;;;;;;20.79;56.86;95407.50;5056922;28;20194;-72
2023/08/11 08:56:54;;;;;;;3.60;3.30;;;;;;;20.87;56.74;95409.03;5057256;28;20233;-72
2023/08/11 08:59:23;;;;;;;3.65;3.35;;;;;;;21.01;56.81;95399.72;5056875;28;20622;-72
2023/08/11 09:01:50;;;;;;;3.67;3.38;;;;;;;21.15;56.74;95411.63;5056641;28;20263;-72
2023/08/11 09:04:17;;;;;;;3.30;3.03;;;;;;;21.28;56.10;95402.69;5056902;28;20209;-72
2023/08/11 09:06:47;;;;;;;4.45;3.13;;;;;;;21.38;55.43;95399.81;5057211;28;20213;-71
2023/08/11 09:09:17;;;;;;;3.50;3.20;;;;;;;21.51;54.51;95399.31;5056948;28;20217;-70
2023/08/11 09:11:44;;;;;;;3.78;3.47;;;;;;;21.65;55.09;95406.81;5056635;28;20667;-69
2023/08/11 09:14:12;;;;;;;3.42;3.13;;;;;;;21.79;54.59;95401.84;5057324;28;20201;-68
2023/08/11 09:16:40;;;;;;;4.15;3.75;;;;;;;21.95;54.83;95397.66;5056749;28;20190;-69
2023/08/11 09:19:12;;;;;;;3.38;2.92;;;;;;;22.02;53.50;95392.75;5056490;28;20606;-69
2023/08/11 09:21:43;;;;;;;3.83;3.60;;;;;;;22.15;53.94;95395.84;5056220;28;20198;-69
2023/08/11 09:24:15;;;;;;;3.35;3.05;;;;;;;22.25;53.73;95397.69;5056752;28;20190;-70
2023/08/11 09:26:44;;;;;;;4.15;3.47;;;;;;;22.35;53.32;95393.94;5056501;28;20198;-70
2023/08/11 09:29:14;;;;;;;4.32;3.30;;;;;;;22.47;51.82;95392.59;5056591;28;20259;-70
2023/08/11 09:31:41;;;;;;;3.35;3.08;;;;;;;22.55;52.08;95390.50;5056210;28;20205;-69
2023/08/11 09:34:13;;;;;;;3.65;3.35;;;;;;;22.65;50.51;95388.72;5056262;28;20232;-72
2023/08/11 09:36:42;;;;;;;3.70;3.30;;;;;;;22.74;50.99;95389.00;5055914;28;20237;-73
2023/08/11 09:39:11;;;;;;;3.30;3.10;;;;;;;22.83;49.73;95386.44;5056551;28;20194;-72
2023/08/11 09:41:47;;;;;;;3.00;2.80;;;;;;;22.87;49.75;95394.81;5055952;28;20194;-73
2023/08/11 09:44:19;;;;;;;3.75;3.45;;;;;;;22.88;49.79;95385.97;5055850;28;20629;-72
2023/08/11 09:46:49;;;;;;;3.67;3.40;;;;;;;22.95;50.98;95387.91;5056203;28;20212;-72
2023/08/11 09:49:17;;;;;;;5.70;3.80;;;;;;;23.00;49.26;95388.22;5055882;28;20225;-72
2023/08/11 09:51:46;;;;;;;3.95;3.55;;;;;;;22.90;49.64;95389.16;5055626;28;20613;-72
2023/08/11 09:54:17;;;;;;;5.28;3.65;;;;;;;22.79;50.34;95385.72;5055699;28;20209;-72
2023/08/11 09:56:52;;;;;;;3.17;2.97;;;;;;;22.61;49.50;95385.97;5072847;28;20201;-72
2023/08/11 09:59:59;;;;;;;3.55;3.17;;;;;;;22.43;50.11;95386.22;5056266;28;20200;-72
2023/08/11 10:03:04;;;;;;;5.30;3.65;;;;;;;22.29;50.20;95380.78;4998911;28;20653;-72
2023/08/11 10:06:10;;;;;;;4.22;3.72;;;;;;;22.21;49.40;95382.09;4999023;28;20218;-72
2023/08/11 10:09:18;;;;;;;3.70;3.40;;;;;;;22.13;50.21;95378.56;4998597;28;20750;-72
2023/08/11 10:12:22;;;;;;;3.60;3.17;;;;;;;22.04;50.14;95373.47;4998470;28;20245;-72
2023/08/11 10:15:26;;;;;;;3.63;3.30;;;;;;;21.95;50.49;95378.00;5014910;28;20286;-72
2023/08/11 10:18:32;;;;;;;3.80;3.50;;;;;;;21.84;50.87;95369.69;5014828;28;20534;-72
2023/08/11 10:21:37;;;;;;;3.50;3.20;;;;;;;21.80;51.12;95368.94;4998938;28;20202;-72
2023/08/11 10:24:43;;;;;;;4.10;3.80;;;;;;;21.74;50.64;95371.41;5015056;28;20194;-72
2023/08/11 10:27:53;;;;;;;3.60;3.30;;;;;;;21.66;49.90;95371.91;4998685;28;20203;-72
2023/08/11 10:30:58;;;;;;;3.35;3.08;;;;;;;21.57;50.71;95366.81;4998858;28;20301;-72
2023/08/11 10:34:02;;;;;;;3.45;3.13;;;;;;;21.50;52.01;95366.88;5029488;28;20208;-72
2023/08/11 10:37:11;;;;;;;4.20;3.50;;;;;;;21.47;52.52;95365.69;5055158;28;20236;-71
2023/08/11 10:40:20;;;;;;;3.85;3.50;;;;;;;21.46;53.78;95369.72;5055166;28;20204;-72
2023/08/11 10:43:25;;;;;;;4.05;3.40;;;;;;;21.45;54.30;95362.50;5055420;28;20197;-71
2023/08/11 10:46:33;;;;;;;3.70;3.40;;;;;;;21.44;54.36;95355.28;5054656;28;20201;-70
2023/08/11 10:49:39;;;;;;;3.85;3.55;;;;;;;21.46;54.44;95361.28;5054733;28;20198;-70
2023/08/11 10:52:45;;;;;;;3.50;3.20;;;;;;;21.48;54.84;95347.63;5054762;28;20216;-70
2023/08/11 10:55:54;;;;;;;3.25;2.95;;;;;;;21.47;54.46;95348.84;5054519;28;20224;-70
2023/08/11 10:59:00;;;;;;;3.10;2.90;;;;;;;21.47;54.43;95350.88;5054798;28;20661;-69
2023/08/11 11:01:32;;;;;;;3.67;3.38;;;;;;;21.49;54.29;95351.22;5054907;28;20204;-71
2023/08/11 11:04:00;;;;;;;3.88;3.47;;;;;;;21.48;55.01;95347.63;5054617;28;20201;-71
2023/08/11 11:06:30;;;;;;;3.28;3.05;;;;;;;21.49;55.04;95354.03;5054412;28;20255;-73
2023/08/11 11:09:01;;;;;;;3.53;3.22;;;;;;;21.43;54.66;95356.50;5054546;28;20251;-70
2023/08/11 11:11:30;;;;;;;3.25;2.90;;;;;;;21.36;54.74;95360.19;5054644;28;20198;-71
2023/08/11 11:13:59;;;;;;;3.60;3.30;;;;;;;21.33;55.19;95352.59;5055109;28;20217;-71
2023/08/11 11:16:27;;;;;;;3.55;2.78;;;;;;;21.36;55.15;95354.56;5054810;28;20205;-70
2023/08/11 11:19:01;;;;;;;3.80;3.40;;;;;;;21.52;55.82;95347.59;5054960;28;20224;-70
2023/08/11 11:21:32;;;;;;;3.28;2.97;;;;;;;21.61;55.11;95356.31;5054515;28;20251;-72
2023/08/11 11:24:03;;;;;;;4.85;3.60;;;;;;;21.69;55.15;95346.59;5054509;28;20194;-71
2023/08/11 11:26:33;;;;;;;3.58;3.33;;;;;;;21.72;53.87;95342.97;5054629;28;20193;-71
2023/08/11 11:29:03;;;;;;;4.07;3.67;;;;;;;21.79;53.82;95344.91;5054628;28;20209;-71
2023/08/11 11:31:33;;;;;;;3.33;3.13;;;;;;;21.84;54.08;95350.03;5053857;28;20216;-73
2023/08/11 11:34:03;;;;;;;4.10;3.20;;;;;;;21.86;53.91;95347.63;5054330;28;20201;-71
2023/08/11 11:40:09;;;;;;;5.00;3.85;;;;;;;21.81;53.81;95345.25;5054553;28;20205;-70
2023/08/11 11:42:39;;;;;;;3.10;2.90;;;;;;;21.78;52.99;95346.09;5054326;28;20201;-70
2023/08/11 11:45:11;;;;;;;3.20;3.00;;;;;;;21.74;53.80;95346.13;5054950;28;20189;-72
2023/08/11 11:47:41;;;;;;;3.70;3.00;;;;;;;21.74;54.01;95348.16;5053963;28;20197;-73
2023/08/11 11:50:13;;;;;;;3.25;2.95;;;;;;;21.75;53.68;95339.31;5054504;28;20205;-73
2023/08/11 11:52:46;;;;;;;4.05;3.65;;;;;;;21.75;52.53;95342.13;5070882;28;20190;-72
2023/08/11 11:55:16;;;;;;;3.53;3.15;;;;;;;21.77;53.30;95334.06;5054054;28;20210;-73
2023/08/11 11:57:45;;;;;;;3.47;3.00;;;;;;;21.84;53.09;95331.19;5054014;28;20213;-71
2023/08/11 12:00:18;;;;;;;3.38;3.08;;;;;;;22.02;54.00;95345.00;5053974;28;20201;-70
2023/08/11 12:02:47;;;;;;;3.95;3.38;;;;;;;22.20;52.52;95329.97;5054934;28;20193;-71
2023/08/11 12:05:20;;;;;;;3.03;2.83;;;;;;;22.39;52.29;95332.09;5053719;28;20293;-72
2023/08/11 12:07:49;;;;;;;2.90;2.70;;;;;;;22.41;50.93;95332.47;5057069;28;20213;-72
2023/08/11 12:10:21;;;;;;;3.78;3.03;;;;;;;22.44;51.03;95333.63;5057779;28;20537;-71
2023/08/11 12:13:03;;;;;;;2.80;2.60;;;;;;;22.52;51.16;95335.13;5074752;28;20268;-71